Time;durP1;ratioP1;P1;durP2;ratioP2;P2;SDS_P1;SDS_P2;PMS_P1;PMS_P2;Temp;Humidity;BMP_temperature;BMP_pressure;BME280_temperature;BME280_humidity;BME280_pressure;Samples;Min_cycle;Max_cycle;Signal;HPM_P1;HPM_P2
2022/06/25 00:01:45;;;;;;;13.10;11.40;;;22.90;1.00;;;;;;5041285;28;20477;-76
2022/06/25 00:06:53;;;;;;;14.37;12.90;;;22.70;1.00;;;;;;5060986;28;20469;-76
2022/06/25 00:09:20;;;;;;;15.47;13.87;;;22.70;1.00;;;;;;5043676;28;20893;-77
2022/06/25 00:14:34;;;;;;;15.17;13.60;;;22.50;1.00;;;;;;5029269;28;20464;-76
2022/06/25 00:17:02;;;;;;;15.90;14.30;;;22.50;1.00;;;;;;5040796;28;20963;-77
2022/06/25 00:19:29;;;;;;;15.57;14.07;;;22.50;1.00;;;;;;5037537;28;20468;-77
2022/06/25 00:21:57;;;;;;;15.13;13.53;;;22.40;1.00;;;;;;5040393;28;20445;-76
2022/06/25 00:24:25;;;;;;;16.57;13.40;;;22.40;1.00;;;;;;5039615;28;20461;-76
2022/06/25 00:26:53;;;;;;;15.43;13.93;;;22.50;1.00;;;;;;5037365;28;20472;-77
2022/06/25 00:29:20;;;;;;;19.53;17.73;;;22.30;1.00;;;;;;5034011;28;20457;-77
2022/06/25 00:31:47;;;;;;;20.43;18.37;;;22.20;1.00;;;;;;5058745;28;20428;-76
2022/06/25 00:34:15;;;;;;;21.53;19.43;;;22.20;1.00;;;;;;5058656;28;22443;-76
2022/06/25 00:36:42;;;;;;;23.40;21.00;;;22.10;1.00;;;;;;5059859;28;20463;-74
2022/06/25 00:39:09;;;;;;;25.27;22.87;;;22.10;1.00;;;;;;5055231;28;20475;-76
2022/06/25 00:41:36;;;;;;;28.30;25.40;;;22.10;1.00;;;;;;5059231;28;20584;-76
2022/06/25 00:44:07;;;;;;;29.87;26.97;;;22.00;1.00;;;;;;5063260;28;20895;-76
2022/06/25 00:46:38;;;;;;;31.27;28.37;;;22.00;1.00;;;;;;5066757;28;20517;-76
2022/06/25 00:49:05;;;;;;;32.50;29.30;;;22.00;1.00;;;;;;5054387;28;20456;-76
2022/06/25 00:51:47;;;;;;;32.63;29.60;;;22.00;1.00;;;;;;5028246;28;20472;-76
2022/06/25 00:54:20;;;;;;;32.10;28.93;;;21.90;1.00;;;;;;5053564;28;20435;-77
2022/06/25 00:56:54;;;;;;;30.97;27.93;;;21.90;1.00;;;;;;5033194;28;20457;-77
2022/06/25 00:59:27;;;;;;;27.93;25.23;;;21.80;1.00;;;;;;5019640;28;20536;-78
2022/06/25 01:01:59;;;;;;;27.70;25.00;;;21.70;1.00;;;;;;5058900;28;20550;-77
2022/06/25 01:04:26;;;;;;;26.90;24.50;;;21.70;1.00;;;;;;5036388;28;20526;-77
2022/06/25 01:06:57;;;;;;;26.47;23.90;;;21.70;1.00;;;;;;5049483;28;20469;-76
2022/06/25 01:09:24;;;;;;;25.37;22.97;;;21.60;1.00;;;;;;5035724;28;20554;-76
2022/06/25 01:11:57;;;;;;;26.13;23.63;;;21.70;1.00;;;;;;5033519;28;20479;-78
2022/06/25 01:14:24;;;;;;;26.97;24.17;;;21.70;1.00;;;;;;5061427;28;20566;-78
2022/06/25 01:16:56;;;;;;;25.50;23.10;;;21.70;1.00;;;;;;5051947;28;20534;-77
2022/06/25 01:19:23;;;;;;;28.03;25.13;;;21.60;1.00;;;;;;5043074;28;20880;-77
2022/06/25 01:21:57;;;;;;;26.60;24.10;;;21.60;1.00;;;;;;5015774;28;20472;-77
2022/06/25 01:24:25;;;;;;;24.70;22.33;;;21.60;1.00;;;;;;5026777;28;20570;-77
2022/06/25 01:27:00;;;;;;;27.03;24.43;;;21.50;1.00;;;;;;5041419;28;20496;-77
2022/06/25 01:29:28;;;;;;;26.27;23.67;;;21.50;1.00;;;;;;5021616;28;20465;-77
2022/06/25 01:31:55;;;;;;;25.57;23.23;;;21.50;1.00;;;;;;5038312;28;20470;-75
2022/06/25 01:34:22;;;;;;;24.53;22.13;;;21.50;1.00;;;;;;5055338;28;20462;-75
2022/06/25 01:36:50;;;;;;;24.30;21.90;;;21.50;1.00;;;;;;5048593;28;20421;-78
2022/06/25 01:39:17;;;;;;;24.57;22.27;;;21.40;1.00;;;;;;5037410;28;20476;-77
2022/06/25 01:41:48;;;;;;;23.60;21.40;;;21.50;1.00;;;;;;5031025;28;20519;-78
2022/06/25 01:44:16;;;;;;;25.50;22.90;;;21.40;1.00;;;;;;5043666;28;20896;-78
2022/06/25 01:46:44;;;;;;;24.90;22.63;;;21.40;1.00;;;;;;5024393;28;21012;-77
2022/06/25 01:49:17;;;;;;;23.90;21.60;;;21.40;1.00;;;;;;5017667;28;20996;-77
2022/06/25 01:51:44;;;;;;;24.00;21.43;;;21.30;1.00;;;;;;5034392;28;20554;-78
2022/06/25 01:54:15;;;;;;;24.27;21.90;;;21.30;1.00;;;;;;5001659;28;20489;-78
2022/06/25 01:56:42;;;;;;;25.27;22.57;;;21.30;1.00;;;;;;5024529;28;20456;-78
2022/06/25 01:59:11;;;;;;;24.23;21.83;;;21.30;1.00;;;;;;5039728;28;20456;-77
2022/06/25 02:01:39;;;;;;;24.53;22.13;;;21.30;1.00;;;;;;5050998;28;20480;-77
2022/06/25 02:04:06;;;;;;;24.20;21.90;;;21.20;1.00;;;;;;5028281;28;20496;-77
2022/06/25 02:06:37;;;;;;;23.10;20.73;;;21.20;1.00;;;;;;5056676;28;20474;-77
2022/06/25 02:09:04;;;;;;;24.70;22.30;;;21.20;1.00;;;;;;5046989;28;20560;-77
2022/06/25 02:11:36;;;;;;;22.97;20.80;;;21.20;1.00;;;;;;5036727;28;20461;-77
2022/06/25 02:14:04;;;;;;;22.83;20.53;;;21.20;1.00;;;;;;5048272;28;20460;-77
2022/06/25 02:16:41;;;;;;;24.70;22.30;;;21.20;1.00;;;;;;5047484;28;20441;-78
2022/06/25 02:19:11;;;;;;;22.97;20.77;;;21.10;1.00;;;;;;5049161;28;20483;-78
2022/06/25 02:21:39;;;;;;;22.97;20.77;;;21.10;1.00;;;;;;5046568;28;20561;-78
2022/06/25 02:24:06;;;;;;;22.87;20.67;;;21.10;1.00;;;;;;5014923;28;20458;-77
2022/06/25 02:26:36;;;;;;;23.43;21.10;;;21.10;1.00;;;;;;5042057;28;20530;-77
2022/06/25 02:29:04;;;;;;;22.90;20.70;;;21.10;1.00;;;;;;5050897;28;20480;-78
2022/06/25 02:31:36;;;;;;;23.03;20.80;;;21.10;1.00;;;;;;5037176;28;20545;-77
2022/06/25 02:34:03;;;;;;;25.33;22.70;;;21.10;1.00;;;;;;5035227;28;20558;-77
2022/06/25 02:36:38;;;;;;;24.20;21.90;;;21.10;1.00;;;;;;5054963;28;20461;-76
2022/06/25 02:39:08;;;;;;;21.77;19.47;;;21.10;1.00;;;;;;5042439;28;20477;-78
2022/06/25 02:41:35;;;;;;;22.97;20.77;;;21.00;1.00;;;;;;5030040;28;21411;-76
2022/06/25 02:44:02;;;;;;;21.90;19.80;;;21.00;1.00;;;;;;5054129;28;20485;-77
2022/06/25 02:46:37;;;;;;;24.00;21.60;;;21.00;1.00;;;;;;5048765;28;20895;-77
2022/06/25 02:49:07;;;;;;;23.27;20.83;;;20.90;1.00;;;;;;5040341;28;20460;-77
2022/06/25 02:51:34;;;;;;;22.90;20.60;;;20.90;1.00;;;;;;5052591;28;20427;-77
2022/06/25 02:54:01;;;;;;;23.80;21.40;;;20.90;1.00;;;;;;5049815;28;20454;-75
2022/06/25 02:59:12;;;;;;;25.93;23.43;;;20.80;1.00;;;;;;5053389;28;20599;-79
2022/06/25 03:01:40;;;;;;;24.87;22.50;;;20.80;1.00;;;;;;5056652;28;20464;-78
2022/06/25 03:04:08;;;;;;;25.27;22.80;;;20.80;1.00;;;;;;5052809;28;20605;-79
2022/06/25 03:06:36;;;;;;;26.97;24.60;;;20.80;1.00;;;;;;5055667;28;20547;-78
2022/06/25 03:09:03;;;;;;;24.80;22.50;;;20.70;1.00;;;;;;5050605;28;20463;-78
2022/06/25 03:11:31;;;;;;;36.50;33.10;;;20.70;1.00;;;;;;5048167;28;20907;-78
2022/06/25 03:13:58;;;;;;;25.53;23.23;;;20.80;1.00;;;;;;5052212;28;20452;-77
2022/06/25 03:16:25;;;;;;;25.53;23.13;;;20.80;1.00;;;;;;5053806;28;20599;-77
2022/06/25 03:18:56;;;;;;;26.20;23.80;;;20.80;1.00;;;;;;5048744;28;20542;-77
2022/06/25 03:21:24;;;;;;;26.70;24.13;;;20.80;1.00;;;;;;5052919;28;20484;-77
2022/06/25 03:23:52;;;;;;;27.20;24.60;;;20.80;1.00;;;;;;5052309;28;20543;-77
2022/06/25 03:26:19;;;;;;;27.87;25.03;;;20.80;1.00;;;;;;5061753;28;20493;-78
2022/06/25 03:28:46;;;;;;;26.97;24.37;;;20.80;1.00;;;;;;5056258;28;20465;-77
2022/06/25 03:31:15;;;;;;;27.93;25.23;;;20.90;1.00;;;;;;5047413;28;20487;-78
2022/06/25 03:33:42;;;;;;;28.20;25.67;;;20.90;1.00;;;;;;5038083;28;20534;-77
2022/06/25 03:36:11;;;;;;;29.57;26.77;;;20.90;1.00;;;;;;5038298;28;20550;-78
2022/06/25 03:38:40;;;;;;;29.13;26.30;;;21.00;1.00;;;;;;5053043;28;20456;-78
2022/06/25 03:43:53;;;;;;;31.23;28.30;;;21.00;1.00;;;;;;5060363;28;20472;-77
2022/06/25 03:46:20;;;;;;;32.23;29.13;;;21.00;1.00;;;;;;5045499;28;20590;-77
2022/06/25 03:48:48;;;;;;;30.70;27.80;;;21.00;1.00;;;;;;5053588;28;21045;-78
2022/06/25 03:51:15;;;;;;;30.10;27.40;;;21.00;1.00;;;;;;5053774;28;20487;-78
2022/06/25 03:53:43;;;;;;;32.40;29.40;;;21.00;1.00;;;;;;5050012;28;20543;-78
2022/06/25 03:56:11;;;;;;;32.23;29.33;;;21.10;1.00;;;;;;5050696;28;20487;-77
2022/06/25 03:58:39;;;;;;;32.13;29.13;;;21.10;1.00;;;;;;5059721;28;20479;-77
2022/06/25 04:01:07;;;;;;;31.93;28.93;;;21.20;1.00;;;;;;5059497;28;20471;-76
2022/06/25 04:03:35;;;;;;;33.07;29.73;;;21.20;1.00;;;;;;5054886;28;20423;-77
2022/06/25 04:06:02;;;;;;;30.63;27.60;;;21.20;1.00;;;;;;5049646;28;20570;-76
2022/06/25 04:08:29;;;;;;;29.90;27.07;;;21.20;1.00;;;;;;5043297;28;20525;-78
2022/06/25 04:10:58;;;;;;;30.50;27.70;;;21.30;1.00;;;;;;5049932;28;20507;-76
2022/06/25 04:13:27;;;;;;;30.57;27.67;;;21.30;1.00;;;;;;5049530;28;20504;-77
2022/06/25 04:15:56;;;;;;;26.90;24.40;;;21.40;1.00;;;;;;5053883;28;20562;-77
2022/06/25 04:18:24;;;;;;;27.10;24.50;;;21.50;1.00;;;;;;5063465;28;20468;-77
2022/06/25 04:20:55;;;;;;;26.23;23.73;;;21.50;1.00;;;;;;5052991;28;20558;-77
2022/06/25 04:23:23;;;;;;;27.03;24.50;;;21.60;1.00;;;;;;5069262;28;20533;-77
2022/06/25 04:25:53;;;;;;;27.00;24.50;;;21.50;1.00;;;;;;5067107;28;20550;-77
2022/06/25 04:31:14;;;;;;;25.60;23.00;;;21.40;1.00;;;;;;5050872;28;20665;-77
2022/06/25 04:33:43;;;;;;;23.17;20.87;;;21.50;1.00;;;;;;5065596;28;20514;-77
2022/06/25 04:36:11;;;;;;;25.03;22.73;;;21.70;1.00;;;;;;5056354;28;21055;-78
2022/06/25 04:38:38;;;;;;;24.23;21.93;;;21.60;1.00;;;;;;5060692;28;20524;-77
2022/06/25 04:41:05;;;;;;;25.50;23.10;;;21.60;1.00;;;;;;5057172;28;21065;-76
2022/06/25 04:43:34;;;;;;;25.17;22.80;;;21.60;1.00;;;;;;5056067;28;20458;-77
2022/06/25 04:46:01;;;;;;;26.47;23.90;;;21.70;1.00;;;;;;5062947;28;20468;-78
2022/06/25 04:48:31;;;;;;;24.90;22.50;;;21.80;1.00;;;;;;5054294;28;20505;-76
2022/06/25 04:50:58;;;;;;;24.23;21.93;;;21.80;1.00;;;;;;5032342;28;20475;-78
2022/06/25 04:53:27;;;;;;;25.83;23.43;;;22.10;1.00;;;;;;5046163;28;20550;-78
2022/06/25 04:55:54;;;;;;;23.37;20.90;;;22.20;1.00;;;;;;5054711;28;20500;-77
2022/06/25 04:58:21;;;;;;;26.00;23.43;;;22.30;1.00;;;;;;5056131;28;20461;-78
2022/06/25 05:00:50;;;;;;;24.67;22.47;;;22.40;1.00;;;;;;5057256;28;20463;-76
2022/06/25 05:03:17;;;;;;;24.63;22.37;;;22.40;1.00;;;;;;5050534;28;20435;-77
2022/06/25 05:05:45;;;;;;;23.37;21.27;;;22.50;1.00;;;;;;5055935;28;20431;-77
2022/06/25 05:08:14;;;;;;;23.33;21.03;;;22.60;1.00;;;;;;5047043;28;21375;-77
2022/06/25 05:10:41;;;;;;;25.80;23.17;;;22.70;1.00;;;;;;5049929;28;20521;-77
2022/06/25 05:13:15;;;;;;;24.03;21.73;;;22.70;1.00;;;;;;5058400;28;20511;-77
2022/06/25 05:15:44;;;;;;;25.60;23.03;;;22.80;1.00;;;;;;5056213;28;20466;-77
2022/06/25 05:18:15;;;;;;;24.27;21.97;;;22.90;1.00;;;;;;5049885;28;20444;-77
2022/06/25 05:20:43;;;;;;;25.80;23.40;;;22.90;1.00;;;;;;5058989;28;20468;-77
2022/06/25 05:23:11;;;;;;;24.50;22.30;;;22.70;1.00;;;;;;5058603;28;20427;-76
2022/06/25 05:25:39;;;;;;;25.43;23.03;;;22.70;1.00;;;;;;5065695;28;20543;-77
2022/06/25 05:28:08;;;;;;;25.83;23.23;;;22.90;1.00;;;;;;5063178;28;20531;-76
2022/06/25 05:30:37;;;;;;;26.00;23.70;;;22.90;1.00;;;;;;5052463;28;20877;-76
2022/06/25 05:33:04;;;;;;;26.13;23.80;;;22.80;1.00;;;;;;5065456;28;20955;-76
2022/06/25 05:35:33;;;;;;;25.73;23.20;;;22.70;1.00;;;;;;5053096;28;20777;-76
2022/06/25 05:38:00;;;;;;;26.37;24.07;;;22.60;1.00;;;;;;5041674;28;20480;-76
2022/06/25 05:40:27;;;;;;;26.23;23.80;;;22.60;1.00;;;;;;5044535;28;20551;-76
2022/06/25 05:42:54;;;;;;;25.43;23.03;;;22.60;1.00;;;;;;5049848;28;20471;-76
2022/06/25 05:45:21;;;;;;;26.20;23.90;;;22.60;1.00;;;;;;5049622;28;20503;-77
2022/06/25 05:47:48;;;;;;;23.83;21.67;;;22.60;1.00;;;;;;5042700;28;20575;-76
2022/06/25 05:50:15;;;;;;;25.40;22.83;;;22.80;1.00;;;;;;5036832;28;20472;-75
2022/06/25 05:52:43;;;;;;;25.47;23.17;;;23.00;1.00;;;;;;5062909;28;21981;-75
2022/06/25 05:55:12;;;;;;;25.63;23.40;;;23.10;1.00;;;;;;5056562;28;20492;-76
2022/06/25 05:57:40;;;;;;;26.30;23.80;;;23.10;1.00;;;;;;5059019;28;20558;-78
2022/06/25 06:00:08;;;;;;;26.30;23.93;;;23.10;1.00;;;;;;5055548;28;20472;-78
2022/06/25 06:02:35;;;;;;;24.37;22.27;;;23.20;1.00;;;;;;5050820;28;20431;-79
2022/06/25 06:05:02;;;;;;;23.63;21.43;;;23.40;1.00;;;;;;5050121;28;20538;-78
2022/06/25 06:07:29;;;;;;;24.00;21.60;;;23.50;1.00;;;;;;5049192;28;20464;-77
2022/06/25 06:09:57;;;;;;;24.23;22.03;;;23.80;1.00;;;;;;5049939;28;20448;-78
2022/06/25 06:12:24;;;;;;;25.10;22.87;;;24.10;1.00;;;;;;5042533;28;21065;-77
2022/06/25 06:14:51;;;;;;;22.90;20.80;;;24.30;1.00;;;;;;5051913;28;20490;-77
2022/06/25 06:17:18;;;;;;;25.00;22.70;;;24.40;1.00;;;;;;5051794;28;20967;-77
2022/06/25 06:19:45;;;;;;;25.63;23.13;;;24.30;1.00;;;;;;5055509;28;20553;-77
2022/06/25 06:22:14;;;;;;;25.27;22.97;;;24.50;1.00;;;;;;5042618;28;20528;-77
2022/06/25 06:24:41;;;;;;;23.87;21.67;;;24.50;1.00;;;;;;5055037;28;21013;-77
2022/06/25 06:27:09;;;;;;;24.90;22.70;;;24.70;1.00;;;;;;5054164;28;21392;-77
2022/06/25 06:29:36;;;;;;;25.93;23.60;;;24.80;1.00;;;;;;5059517;28;20478;-78
2022/06/25 06:32:04;;;;;;;25.50;23.20;;;25.00;1.00;;;;;;5048753;28;20464;-76
2022/06/25 06:34:31;;;;;;;25.03;22.63;;;25.00;1.00;;;;;;5048617;28;20597;-77
2022/06/25 06:36:58;;;;;;;26.13;23.77;;;25.00;1.00;;;;;;5052626;28;20460;-77
2022/06/25 06:39:26;;;;;;;26.07;23.77;;;25.00;1.00;;;;;;5043466;28;20942;-77
2022/06/25 06:41:53;;;;;;;24.83;22.50;;;25.10;1.00;;;;;;5050636;28;20946;-76
2022/06/25 06:44:21;;;;;;;25.97;23.70;;;25.20;1.00;;;;;;5053401;28;21324;-76
2022/06/25 06:46:48;;;;;;;26.67;24.27;;;25.20;1.00;;;;;;5054725;28;20465;-77
2022/06/25 06:49:15;;;;;;;26.67;24.27;;;25.30;1.00;;;;;;5061617;28;20435;-77
2022/06/25 06:51:42;;;;;;;26.20;23.90;;;25.30;1.00;;;;;;5061159;28;21162;-76
2022/06/25 06:54:09;;;;;;;25.87;23.37;;;25.30;1.00;;;;;;5052022;28;20448;-76
2022/06/25 06:56:36;;;;;;;25.07;22.80;;;25.20;1.00;;;;;;5053568;28;20471;-76
2022/06/25 06:59:03;;;;;;;25.17;22.77;;;25.10;1.00;;;;;;5044357;28;20588;-75
2022/06/25 07:01:33;;;;;;;25.30;23.13;;;25.10;1.00;;;;;;5061597;28;20452;-78
2022/06/25 07:04:00;;;;;;;23.40;21.40;;;25.30;1.00;;;;;;5062862;28;20958;-76
2022/06/25 07:06:27;;;;;;;25.03;22.73;;;25.20;1.00;;;;;;5052941;28;20456;-76
2022/06/25 07:08:54;;;;;;;23.70;21.50;;;25.20;1.00;;;;;;5059205;28;20480;-77
2022/06/25 07:11:31;;;;;;;23.37;21.27;;;25.30;1.00;;;;;;5052247;28;20482;-75
2022/06/25 07:14:01;;;;;;;25.20;23.00;;;25.20;1.00;;;;;;5053624;28;21004;-76
2022/06/25 07:16:28;;;;;;;25.37;23.17;;;25.10;1.00;;;;;;5063624;28;20464;-76
2022/06/25 07:18:58;;;;;;;25.50;23.30;;;25.20;1.00;;;;;;5059064;28;20445;-77
2022/06/25 07:21:26;;;;;;;26.57;24.17;;;25.20;1.00;;;;;;5044432;28;20456;-76
2022/06/25 07:23:53;;;;;;;26.17;23.93;;;25.30;1.00;;;;;;5063416;28;20463;-76
2022/06/25 07:26:21;;;;;;;26.37;24.07;;;25.30;1.00;;;;;;5060280;28;20887;-76
2022/06/25 07:28:48;;;;;;;27.50;25.10;;;25.30;1.00;;;;;;5062787;28;20478;-77
2022/06/25 07:31:17;;;;;;;28.47;26.00;;;25.40;1.00;;;;;;5064123;28;20479;-76
2022/06/25 07:33:44;;;;;;;27.37;24.77;;;25.50;1.00;;;;;;5066006;28;20470;-75
2022/06/25 07:36:14;;;;;;;26.47;24.10;;;25.70;1.00;;;;;;5064242;28;20591;-76
2022/06/25 07:38:41;;;;;;;26.70;24.20;;;25.80;1.00;;;;;;5053775;28;20460;-78
2022/06/25 07:41:09;;;;;;;26.30;24.00;;;25.60;1.00;;;;;;5063893;28;20500;-77
2022/06/25 07:43:36;;;;;;;24.97;22.67;;;25.90;1.00;;;;;;5063260;28;20464;-77
2022/06/25 07:46:04;;;;;;;26.23;24.00;;;26.10;1.00;;;;;;5063239;28;20505;-77
2022/06/25 07:48:31;;;;;;;25.83;23.37;;;26.40;1.00;;;;;;5070388;28;20468;-77
2022/06/25 07:53:44;;;;;;;23.00;21.00;;;26.80;1.00;;;;;;5068830;28;20415;-77
2022/06/25 07:56:11;;;;;;;23.60;21.20;;;27.10;1.00;;;;;;5055339;28;20460;-78
2022/06/25 07:58:38;;;;;;;21.73;19.73;;;27.40;1.00;;;;;;5057443;28;20462;-78
2022/06/25 08:01:05;;;;;;;19.03;17.17;;;27.50;1.00;;;;;;5055219;28;20459;-76
2022/06/25 08:03:32;;;;;;;18.53;16.73;;;27.70;1.00;;;;;;5066027;28;20590;-77
2022/06/25 08:05:59;;;;;;;16.33;14.83;;;28.00;1.00;;;;;;5061022;28;20468;-78
2022/06/25 08:08:26;;;;;;;17.13;15.43;;;28.00;1.00;;;;;;5054984;28;20986;-77
2022/06/25 08:10:57;;;;;;;19.60;17.80;;;27.90;1.00;;;;;;5062278;28;20461;-76
2022/06/25 08:13:25;;;;;;;20.60;18.90;;;27.80;1.00;;;;;;5068588;28;20569;-77
2022/06/25 08:15:52;;;;;;;14.63;13.30;;;27.80;1.00;;;;;;5074011;28;20539;-77
2022/06/25 08:18:22;;;;;;;14.80;12.20;;;27.90;1.00;;;;;;5059158;28;21199;-79
2022/06/25 08:20:51;;;;;;;14.90;13.40;;;28.10;1.00;;;;;;5054247;28;20452;-82
2022/06/25 08:23:18;;;;;;;13.43;12.03;;;28.20;1.00;;;;;;5055438;28;20810;-80
2022/06/25 08:25:45;;;;;;;13.10;11.80;;;28.20;1.00;;;;;;5059398;28;20484;-80
2022/06/25 08:28:18;;;;;;;13.13;11.77;;;28.30;1.00;;;;;;5081650;28;20981;-79
2022/06/25 08:30:45;;;;;;;14.30;12.20;;;28.30;1.00;;;;;;5063264;28;20498;-80
2022/06/25 08:33:14;;;;;;;14.90;13.50;;;28.50;1.00;;;;;;5080249;28;20467;-79
2022/06/25 08:35:41;;;;;;;14.50;13.20;;;28.50;1.00;;;;;;5073013;28;20585;-80
2022/06/25 08:38:08;;;;;;;16.43;14.93;;;28.60;1.00;;;;;;5056206;28;20464;-81
2022/06/25 08:40:37;;;;;;;16.10;14.50;;;28.40;1.00;;;;;;5060700;28;20535;-80
2022/06/25 08:43:06;;;;;;;15.27;13.80;;;28.20;1.00;;;;;;5064624;28;20468;-78
2022/06/25 08:45:35;;;;;;;15.53;14.03;;;28.20;1.00;;;;;;5067638;28;21353;-73
2022/06/25 08:48:07;;;;;;;15.60;14.10;;;28.30;1.00;;;;;;5069171;28;20469;-76
2022/06/25 08:50:40;;;;;;;15.60;14.20;;;28.50;1.00;;;;;;5062624;28;21185;-75
2022/06/25 08:53:09;;;;;;;15.00;13.43;;;28.80;1.00;;;;;;5066036;28;21355;-77
2022/06/25 08:55:38;;;;;;;15.83;14.23;;;29.00;1.00;;;;;;5060902;28;20962;-75
2022/06/25 08:58:07;;;;;;;14.30;12.93;;;29.20;1.00;;;;;;5068473;28;20604;-75
2022/06/25 09:00:37;;;;;;;13.20;11.90;;;29.40;1.00;;;;;;5065236;28;20908;-77
2022/06/25 09:03:05;;;;;;;14.33;12.83;;;29.30;1.00;;;;;;5064152;28;20541;-75
2022/06/25 09:05:33;;;;;;;13.73;12.33;;;29.30;1.00;;;;;;5059326;28;20552;-74
2022/06/25 09:08:03;;;;;;;12.57;11.27;;;29.30;1.00;;;;;;5064547;28;21320;-74
2022/06/25 09:10:30;;;;;;;13.60;12.30;;;29.20;1.00;;;;;;5059374;28;20471;-76
2022/06/25 09:13:00;;;;;;;12.40;11.17;;;29.20;1.00;;;;;;5061806;28;20470;-74
2022/06/25 09:15:29;;;;;;;12.70;11.43;;;29.50;1.00;;;;;;5060579;28;20474;-75
2022/06/25 09:17:57;;;;;;;13.53;12.23;;;29.80;1.00;;;;;;5062882;28;20567;-75
2022/06/25 09:20:24;;;;;;;12.87;11.67;;;29.80;1.00;;;;;;5062620;28;20475;-76
2022/06/25 09:22:59;;;;;;;13.33;11.80;;;29.90;1.00;;;;;;5063233;28;20455;-77
2022/06/25 09:25:27;;;;;;;13.70;12.40;;;30.00;1.00;;;;;;5062109;28;20649;-77
2022/06/25 09:27:54;;;;;;;13.40;12.00;;;30.00;1.00;;;;;;5059666;28;21024;-74
2022/06/25 09:30:22;;;;;;;13.00;11.50;;;29.80;1.00;;;;;;5058347;28;20468;-74
2022/06/25 09:32:51;;;;;;;13.30;10.83;;;29.90;1.00;;;;;;5063332;28;20542;-75
2022/06/25 09:38:14;;;;;;;12.57;11.13;;;30.00;1.00;;;;;;5088772;27;20555;-75
2022/06/25 09:40:48;;;;;;;13.43;12.00;;;30.80;1.00;;;;;;5058742;28;20447;-75
2022/06/25 09:43:17;;;;;;;11.73;10.53;;;31.00;1.00;;;;;;5058708;27;20471;-78
2022/06/25 09:45:47;;;;;;;11.90;9.70;;;31.00;1.00;;;;;;5061088;27;20476;-74
2022/06/25 09:48:21;;;;;;;11.00;9.40;;;31.10;1.00;;;;;;5062081;28;20483;-75
2022/06/25 09:51:06;;;;;;;11.33;9.27;;;31.20;1.00;;;;;;5062831;28;24294;-75
2022/06/25 09:53:36;;;;;;;11.93;10.80;;;31.40;1.00;;;;;;5059700;28;20539;-75
2022/06/25 09:56:04;;;;;;;12.60;10.17;;;31.60;1.00;;;;;;5062175;28;20466;-76
2022/06/25 09:58:35;;;;;;;11.53;9.60;;;31.70;1.00;;;;;;5058494;28;20472;-79
2022/06/25 10:01:03;;;;;;;10.20;9.17;;;32.10;1.00;;;;;;5070138;27;20449;-78
2022/06/25 10:03:34;;;;;;;9.67;8.30;;;33.20;1.00;;;;;;5071046;27;20544;-79
2022/06/25 10:06:02;;;;;;;10.07;8.73;;;34.20;1.00;;;;;;5083883;27;20448;-81
2022/06/25 10:08:33;;;;;;;10.10;9.00;;;34.90;1.00;;;;;;5065705;28;20485;-78
2022/06/25 10:11:05;;;;;;;9.93;8.90;;;34.80;1.00;;;;;;5062137;27;20912;-76
2022/06/25 10:13:36;;;;;;;13.23;11.93;;;34.40;1.00;;;;;;5061132;28;20451;-76
2022/06/25 10:16:03;;;;;;;10.10;9.10;;;33.40;1.00;;;;;;5064830;28;20554;-76
2022/06/25 10:18:30;;;;;;;10.30;8.97;;;33.40;1.00;;;;;;5060048;28;20479;-76
2022/06/25 10:20:58;;;;;;;9.70;8.67;;;33.30;1.00;;;;;;5061743;28;20454;-76
2022/06/25 10:23:26;;;;;;;9.73;8.73;;;33.20;1.00;;;;;;5062715;28;20459;-75
2022/06/25 10:25:54;;;;;;;9.03;8.07;;;32.50;1.00;;;;;;5053051;28;21279;-76
2022/06/25 10:28:28;;;;;;;11.23;8.40;;;32.30;1.00;;;;;;5060826;28;20473;-74
2022/06/25 10:30:56;;;;;;;11.50;9.10;;;32.40;1.00;;;;;;5066236;28;20451;-75
2022/06/25 10:33:25;;;;;;;10.33;9.33;;;32.30;1.00;;;;;;5063004;28;20475;-76
2022/06/25 10:35:56;;;;;;;10.93;9.57;;;32.40;1.00;;;;;;5055570;28;20480;-75
2022/06/25 10:38:26;;;;;;;15.23;10.70;;;32.70;1.00;;;;;;5059621;28;20472;-75
2022/06/25 10:40:57;;;;;;;10.20;9.20;;;33.10;1.00;;;;;;5063545;28;20897;-76
2022/06/25 10:43:45;;;;;;;12.23;9.80;;;33.70;1.00;;;;;;5062853;28;20488;-77
2022/06/25 10:46:29;;;;;;;9.57;8.57;;;35.00;1.00;;;;;;5089448;27;20519;-78
2022/06/25 10:49:07;;;;;;;9.87;8.90;;;35.50;1.00;;;;;;5052956;28;20486;-76
2022/06/25 10:51:40;;;;;;;9.40;8.50;;;35.70;1.00;;;;;;5045507;27;20453;-77
2022/06/25 10:54:12;;;;;;;10.73;8.50;;;35.60;1.00;;;;;;5047318;28;20468;-76
2022/06/25 10:56:44;;;;;;;9.90;8.90;;;34.70;1.00;;;;;;5027430;28;20460;-75
2022/06/25 10:59:45;;;;;;;9.90;8.90;;;34.10;1.00;;;;;;5044196;28;20503;-74
2022/06/25 11:02:13;;;;;;;11.03;9.87;;;34.10;1.00;;;;;;5047376;27;20456;-76
2022/06/25 11:04:49;;;;;;;11.47;10.37;;;34.50;1.00;;;;;;5043514;28;20452;-75
2022/06/25 11:07:17;;;;;;;11.23;10.13;;;35.10;1.00;;;;;;5046613;28;20882;-76
2022/06/25 11:09:53;;;;;;;12.67;10.57;;;35.70;1.00;;;;;;5043845;28;20479;-78
2022/06/25 11:12:22;;;;;;;11.87;10.67;;;35.70;1.00;;;;;;5050509;28;20459;-76
2022/06/25 11:14:59;;;;;;;11.93;10.63;;;35.40;1.00;;;;;;5047111;28;20464;-74
2022/06/25 11:17:26;;;;;;;12.50;11.30;;;35.00;1.00;;;;;;5044615;28;20857;-78
2022/06/25 11:19:55;;;;;;;14.60;11.00;;;35.00;1.00;;;;;;5049725;28;20566;-75
2022/06/25 11:22:22;;;;;;;11.30;9.93;;;34.80;1.00;;;;;;5048367;28;20556;-76
2022/06/25 11:30:21;;;;;;;10.83;9.73;;;35.30;1.00;;;;;;5049089;28;20480;-77
2022/06/25 11:32:49;;;;;;;12.30;11.10;;;37.50;1.00;;;;;;5050118;28;20547;-75
2022/06/25 11:35:16;;;;;;;11.57;10.47;;;39.10;1.00;;;;;;5048866;28;20482;-76
2022/06/25 11:37:43;;;;;;;12.03;10.97;;;39.50;1.00;;;;;;5051178;28;21038;-77
2022/06/25 11:40:14;;;;;;;10.83;9.30;;;39.40;1.00;;;;;;5037991;28;20480;-78
2022/06/25 11:42:44;;;;;;;11.30;10.20;;;39.00;1.00;;;;;;5042129;28;20948;-78
2022/06/25 11:45:14;;;;;;;12.03;10.63;;;37.90;1.00;;;;;;5044649;28;20471;-76
2022/06/25 11:47:42;;;;;;;10.73;9.73;;;36.50;1.00;;;;;;5052290;28;20528;-76
2022/06/25 11:50:10;;;;;;;11.67;10.57;;;35.10;1.00;;;;;;5049203;28;20674;-75
2022/06/25 11:52:42;;;;;;;10.27;8.77;;;34.20;1.00;;;;;;5045859;28;20960;-75
2022/06/25 11:55:10;;;;;;;10.33;9.33;;;33.20;1.00;;;;;;5048773;28;20496;-75
2022/06/25 11:57:42;;;;;;;10.63;9.53;;;32.90;1.00;;;;;;5041815;28;20959;-75
2022/06/25 12:00:13;;;;;;;9.77;8.73;;;32.50;1.00;;;;;;5039135;28;20481;-75
2022/06/25 12:02:43;;;;;;;11.43;10.33;;;32.40;1.00;;;;;;5050845;28;20463;-74
2022/06/25 12:05:12;;;;;;;10.90;9.80;;;31.80;1.00;;;;;;5050107;28;20475;-77
2022/06/25 12:07:44;;;;;;;12.03;10.77;;;31.80;1.00;;;;;;5045339;28;20445;-76
2022/06/25 12:10:13;;;;;;;12.93;10.33;;;31.70;1.00;;;;;;5047550;28;20480;-74
2022/06/25 12:12:41;;;;;;;10.83;9.73;;;31.60;1.00;;;;;;5047009;28;20976;-75
2022/06/25 12:15:11;;;;;;;12.17;10.97;;;31.60;1.00;;;;;;5047423;28;20564;-74
2022/06/25 12:17:39;;;;;;;11.13;9.60;;;32.70;1.00;;;;;;5046873;28;20551;-76
2022/06/25 12:20:09;;;;;;;11.03;9.93;;;35.20;1.00;;;;;;5046444;28;21060;-75
2022/06/25 12:22:38;;;;;;;10.20;9.10;;;37.70;1.00;;;;;;5057036;28;20550;-75
2022/06/25 12:25:06;;;;;;;10.77;9.77;;;39.60;1.00;;;;;;5045938;28;20457;-77
2022/06/25 12:27:45;;;;;;;10.60;8.87;;;40.90;1.00;;;;;;5049534;28;20440;-78
2022/06/25 12:30:17;;;;;;;9.87;8.97;;;41.50;1.00;;;;;;5047392;28;20502;-77
2022/06/25 12:32:44;;;;;;;9.40;8.60;;;42.10;1.00;;;;;;5043955;28;20501;-75
2022/06/25 12:35:19;;;;;;;10.20;9.27;;;42.70;1.00;;;;;;5050992;28;20457;-76
2022/06/25 12:38:01;;;;;;;11.07;9.93;;;43.20;1.00;;;;;;5043610;28;20464;-76
2022/06/25 12:40:29;;;;;;;11.50;10.53;;;43.60;1.00;;;;;;5048442;28;21195;-75
2022/06/25 12:42:57;;;;;;;10.60;9.70;;;43.90;1.00;;;;;;5046551;28;20464;-76
2022/06/25 12:45:26;;;;;;;12.57;11.37;;;43.30;1.00;;;;;;5047369;28;20471;-79
2022/06/25 12:47:53;;;;;;;12.93;11.90;;;41.80;1.00;;;;;;5048472;28;20476;-76
2022/06/25 12:50:26;;;;;;;14.13;12.93;;;40.00;1.00;;;;;;5049526;28;20899;-76
2022/06/25 12:52:54;;;;;;;13.67;12.50;;;38.60;1.00;;;;;;5041855;28;20560;-77
2022/06/25 12:55:25;;;;;;;13.77;12.47;;;38.00;1.00;;;;;;5046738;28;20475;-76
2022/06/25 12:57:53;;;;;;;12.90;11.80;;;38.50;1.00;;;;;;5043575;28;20772;-77
2022/06/25 13:00:22;;;;;;;14.10;12.90;;;38.70;1.00;;;;;;5050498;28;20475;-77
2022/06/25 13:02:50;;;;;;;12.23;11.20;;;39.10;1.00;;;;;;5044288;28;20542;-76
2022/06/25 13:05:17;;;;;;;12.20;11.20;;;39.60;1.00;;;;;;5046736;28;20575;-78
2022/06/25 13:07:48;;;;;;;12.97;11.87;;;39.50;1.00;;;;;;5048077;28;20556;-75
2022/06/25 13:10:16;;;;;;;13.67;12.47;;;39.00;1.00;;;;;;5046515;28;20508;-77
2022/06/25 13:12:43;;;;;;;13.30;12.20;;;38.70;1.00;;;;;;5045213;28;20452;-76